createdAt,value
2022-09-23T00:00:18.921Z,976.69
2022-09-23T00:01:18.951Z,976.72
2022-09-23T00:02:18.965Z,976.67
2022-09-23T00:03:18.863Z,976.74
2022-09-23T00:04:18.860Z,976.75
2022-09-23T00:05:18.833Z,976.79
2022-09-23T00:06:18.850Z,976.74
2022-09-23T00:07:18.835Z,976.76
2022-09-23T00:08:18.800Z,976.68
2022-09-23T00:09:18.797Z,976.74
2022-09-23T00:10:18.789Z,976.70
2022-09-23T00:11:18.802Z,976.76
2022-09-23T00:12:29.946Z,976.77
2022-09-23T00:13:18.801Z,976.75
2022-09-23T00:14:18.746Z,976.74
2022-09-23T00:15:18.723Z,976.74
2022-09-23T00:16:18.800Z,976.72
2022-09-23T00:17:18.714Z,976.74
2022-09-23T00:18:18.709Z,976.74
2022-09-23T00:19:18.679Z,976.72
2022-09-23T00:20:18.695Z,976.75
2022-09-23T00:21:18.702Z,976.70
2022-09-23T00:22:18.638Z,976.67
2022-09-23T00:23:18.647Z,976.67
2022-09-23T00:24:18.654Z,976.71
2022-09-23T00:25:18.658Z,976.69
2022-09-23T00:26:18.613Z,976.69
2022-09-23T00:27:18.652Z,976.70
2022-09-23T00:28:18.585Z,976.66
2022-09-23T00:29:19.379Z,976.61
2022-09-23T00:30:18.574Z,976.67
2022-09-23T00:31:18.619Z,976.65
2022-09-23T00:32:18.594Z,976.65
2022-09-23T00:33:18.542Z,976.68
2022-09-23T00:34:18.542Z,976.62
2022-09-23T00:35:18.530Z,976.65
2022-09-23T00:36:18.509Z,976.66
2022-09-23T00:37:18.503Z,976.65
2022-09-23T00:38:19.262Z,976.68
2022-09-23T00:39:18.496Z,976.64
2022-09-23T00:40:18.499Z,976.63
2022-09-23T00:41:18.450Z,976.57
2022-09-23T00:42:18.471Z,976.60
2022-09-23T00:43:18.461Z,976.62
2022-09-23T00:44:18.415Z,976.54
2022-09-23T00:45:18.424Z,976.48
2022-09-23T00:46:18.431Z,976.47
2022-09-23T00:47:18.398Z,976.54
2022-09-23T00:48:18.415Z,976.50
2022-09-23T00:49:18.391Z,976.48
2022-09-23T00:50:18.360Z,976.48
2022-09-23T00:51:18.351Z,976.44
2022-09-23T00:52:18.338Z,976.44
2022-09-23T00:53:18.313Z,976.42
2022-09-23T00:54:18.328Z,976.43
2022-09-23T00:55:18.304Z,976.45
2022-09-23T00:56:18.289Z,976.48
2022-09-23T00:57:18.276Z,976.40
2022-09-23T00:58:18.270Z,976.43
2022-09-23T00:59:18.295Z,976.42
2022-09-23T01:00:18.250Z,976.40
2022-09-23T01:01:18.257Z,976.37
2022-09-23T01:02:18.295Z,976.37
2022-09-23T01:03:18.211Z,976.39
2022-09-23T01:04:18.233Z,976.38
2022-09-23T01:05:18.205Z,976.36
2022-09-23T01:06:18.210Z,976.37
2022-09-23T01:07:18.173Z,976.35
2022-09-23T01:08:18.154Z,976.42
2022-09-23T01:09:18.146Z,976.40
2022-09-23T01:10:18.149Z,976.38
2022-09-23T01:11:18.143Z,976.31
2022-09-23T01:12:18.149Z,976.39
2022-09-23T01:13:18.089Z,976.38
2022-09-23T01:14:18.099Z,976.36
2022-09-23T01:15:18.082Z,976.33
2022-09-23T01:16:18.126Z,976.37
2022-09-23T01:17:18.047Z,976.37
2022-09-23T01:18:18.058Z,976.35
2022-09-23T01:19:18.050Z,976.31
2022-09-23T01:20:18.031Z,976.28
2022-09-23T01:21:18.003Z,976.26
2022-09-23T01:22:17.996Z,976.30
2022-09-23T01:23:17.972Z,976.31
2022-09-23T01:24:18.008Z,976.29
2022-09-23T01:25:18.010Z,976.33
2022-09-23T01:26:17.939Z,976.28
2022-09-23T01:27:18.934Z,976.27
2022-09-23T01:28:17.936Z,976.25
2022-09-23T01:29:17.920Z,976.20
2022-09-23T01:30:17.921Z,976.26
2022-09-23T01:31:17.978Z,976.26
2022-09-23T01:32:17.878Z,976.23
2022-09-23T01:33:17.865Z,976.23
2022-09-23T01:34:17.865Z,976.23
2022-09-23T01:35:17.852Z,976.28
2022-09-23T01:36:17.873Z,976.20
2022-09-23T01:37:17.847Z,976.22
2022-09-23T01:38:17.835Z,976.27
2022-09-23T01:39:17.806Z,976.23
2022-09-23T01:40:17.864Z,976.20
2022-09-23T01:41:17.805Z,976.21
2022-09-23T01:42:17.774Z,976.18
2022-09-23T01:43:17.770Z,976.21
2022-09-23T01:44:17.734Z,976.20
2022-09-23T01:45:17.745Z,976.15
2022-09-23T01:46:17.738Z,976.20
2022-09-23T01:47:17.733Z,976.17
2022-09-23T01:48:17.718Z,976.12
2022-09-23T01:49:17.722Z,976.18
2022-09-23T01:50:17.694Z,976.13
2022-09-23T01:51:17.706Z,976.12
2022-09-23T01:52:17.703Z,976.15
2022-09-23T01:53:17.638Z,976.13
2022-09-23T01:54:17.642Z,976.13
2022-09-23T01:55:17.640Z,976.17
2022-09-23T01:56:17.619Z,976.13
2022-09-23T01:57:17.647Z,976.15
2022-09-23T01:58:17.591Z,976.13
2022-09-23T01:59:17.593Z,976.04
2022-09-23T02:00:17.554Z,976.07
2022-09-23T02:01:17.636Z,976.07
2022-09-23T02:02:17.610Z,976.05
2022-09-23T02:03:17.559Z,976.06
2022-09-23T02:04:17.550Z,975.99
2022-09-23T02:05:17.526Z,976.01
2022-09-23T02:06:17.553Z,975.99
2022-09-23T02:07:17.496Z,976.06
2022-09-23T02:08:17.518Z,975.97
2022-09-23T02:09:18.479Z,975.99
2022-09-23T02:10:17.504Z,975.94
2022-09-23T02:11:17.462Z,975.97
2022-09-23T02:12:17.477Z,975.98
2022-09-23T02:13:17.477Z,975.97
2022-09-23T02:14:17.447Z,976.05
2022-09-23T02:15:17.427Z,976.01
2022-09-23T02:16:17.405Z,976.00
2022-09-23T02:17:17.391Z,976.04
2022-09-23T02:18:17.411Z,976.06
2022-09-23T02:19:17.382Z,975.99
2022-09-23T02:20:17.366Z,975.95
2022-09-23T02:21:17.360Z,975.98
2022-09-23T02:22:17.324Z,976.02
2022-09-23T02:23:17.349Z,975.99
2022-09-23T02:24:17.341Z,975.98
2022-09-23T02:25:17.441Z,975.93
2022-09-23T02:26:17.289Z,975.92
2022-09-23T02:27:17.292Z,975.93
2022-09-23T02:28:17.501Z,975.95
2022-09-23T02:29:17.281Z,975.96
2022-09-23T02:30:17.263Z,975.96
2022-09-23T02:31:17.255Z,975.86
2022-09-23T02:32:17.239Z,975.91
2022-09-23T02:33:17.235Z,975.93
2022-09-23T02:34:17.230Z,975.88
2022-09-23T02:35:17.189Z,975.92
2022-09-23T02:36:17.175Z,975.86
2022-09-23T02:37:17.340Z,975.90
2022-09-23T02:38:17.148Z,975.81
2022-09-23T02:39:17.185Z,975.91
2022-09-23T02:40:17.217Z,975.86
2022-09-23T02:41:17.126Z,975.88
2022-09-23T02:42:17.122Z,975.88
2022-09-23T02:43:17.105Z,975.85
2022-09-23T02:44:17.127Z,975.85
2022-09-23T02:45:17.080Z,975.85
2022-09-23T02:46:17.124Z,975.84
2022-09-23T02:47:17.041Z,975.87
2022-09-23T02:48:17.058Z,975.80
2022-09-23T02:49:17.035Z,975.81
2022-09-23T02:50:17.052Z,975.87
2022-09-23T02:51:17.015Z,975.82
2022-09-23T02:52:17.018Z,975.83
2022-09-23T02:53:16.985Z,975.79
2022-09-23T02:54:17.005Z,975.86
2022-09-23T02:55:16.999Z,975.78
2022-09-23T02:56:16.958Z,975.86
2022-09-23T02:57:16.946Z,975.77
2022-09-23T02:58:16.921Z,975.78
2022-09-23T03:01:41.737Z,975.78
2022-09-23T03:02:41.757Z,975.76
2022-09-23T03:03:41.509Z,975.75
2022-09-23T03:04:41.480Z,975.74
2022-09-23T03:05:41.489Z,975.70
2022-09-23T03:06:41.454Z,975.72
2022-09-23T03:07:41.467Z,975.74
2022-09-23T03:08:41.433Z,975.71
2022-09-23T03:09:41.428Z,975.68
2022-09-23T03:10:41.407Z,975.66
2022-09-23T03:11:41.417Z,975.64
2022-09-23T03:12:41.400Z,975.61
2022-09-23T03:13:41.377Z,975.60
2022-09-23T03:14:41.365Z,975.63
2022-09-23T03:15:41.354Z,975.64
2022-09-23T03:16:41.413Z,975.61
2022-09-23T03:17:41.350Z,975.57
2022-09-23T03:18:41.322Z,975.59
2022-09-23T03:19:41.480Z,975.60
2022-09-23T03:20:41.287Z,975.60
2022-09-23T03:21:41.297Z,975.60
2022-09-23T03:22:41.288Z,975.62
2022-09-23T03:23:41.268Z,975.51
2022-09-23T03:24:41.240Z,975.52
2022-09-23T03:25:41.243Z,975.50
2022-09-23T03:26:41.233Z,975.57
2022-09-23T03:27:41.248Z,975.54
2022-09-23T03:28:41.221Z,975.50
2022-09-23T03:29:41.176Z,975.51
2022-09-23T03:30:41.178Z,975.50
2022-09-23T03:31:41.217Z,975.51
2022-09-23T03:32:41.151Z,975.49
2022-09-23T03:33:41.188Z,975.50
2022-09-23T03:34:41.128Z,975.50
2022-09-23T03:35:41.111Z,975.51
2022-09-23T03:36:41.108Z,975.50
2022-09-23T03:37:41.086Z,975.54
2022-09-23T03:38:41.089Z,975.45
2022-09-23T03:39:41.078Z,975.49
2022-09-23T03:40:41.111Z,975.50
2022-09-23T03:41:41.040Z,975.49
2022-09-23T03:42:41.045Z,975.47
2022-09-23T03:43:41.025Z,975.47
2022-09-23T03:44:41.057Z,975.41
2022-09-23T03:45:41.040Z,975.44
2022-09-23T03:46:40.986Z,975.46
2022-09-23T03:47:40.968Z,975.50
2022-09-23T03:48:40.964Z,975.44
2022-09-23T03:49:40.960Z,975.43
2022-09-23T03:50:40.947Z,975.40
2022-09-23T03:51:44.523Z,975.43
2022-09-23T03:52:40.967Z,975.42
2022-09-23T03:53:41.076Z,975.42
2022-09-23T03:54:40.921Z,975.42
2022-09-23T03:55:40.875Z,975.39
2022-09-23T03:56:40.876Z,975.37
2022-09-23T03:57:40.853Z,975.32
2022-09-23T03:58:40.876Z,975.34
2022-09-23T03:59:40.855Z,975.35
2022-09-23T04:00:40.878Z,975.27
2022-09-23T04:01:40.826Z,975.29
2022-09-23T04:02:40.804Z,975.25
2022-09-23T04:03:40.783Z,975.26
2022-09-23T04:04:40.850Z,975.26
2022-09-23T04:05:40.793Z,975.26
2022-09-23T04:06:40.758Z,975.30
2022-09-23T04:07:40.727Z,975.21
2022-09-23T04:08:40.730Z,975.19
2022-09-23T04:09:40.708Z,975.20
2022-09-23T04:10:40.703Z,975.15
2022-09-23T04:11:40.700Z,975.18
2022-09-23T04:12:40.681Z,975.22
2022-09-23T04:13:40.663Z,975.15
2022-09-23T04:14:40.658Z,975.22
2022-09-23T04:15:40.634Z,975.21
2022-09-23T04:16:40.731Z,975.22
2022-09-23T04:17:40.614Z,975.15
2022-09-23T04:18:40.618Z,975.18
2022-09-23T04:19:40.590Z,975.15
2022-09-23T04:20:40.597Z,975.20
2022-09-23T04:21:40.599Z,975.11
2022-09-23T04:22:40.563Z,975.14
2022-09-23T04:23:40.544Z,975.13
2022-09-23T04:24:40.541Z,975.16
2022-09-23T04:25:40.520Z,975.14
2022-09-23T04:26:40.516Z,975.13
2022-09-23T04:27:40.539Z,975.14
2022-09-23T04:28:40.499Z,975.11
2022-09-23T04:29:40.486Z,975.15
2022-09-23T04:30:40.468Z,975.17
2022-09-23T04:31:40.575Z,975.16
2022-09-23T04:32:40.443Z,975.11
2022-09-23T04:33:40.443Z,975.11
2022-09-23T04:34:40.421Z,975.13
2022-09-23T04:35:40.566Z,975.15
2022-09-23T04:36:40.401Z,975.15
2022-09-23T04:37:40.375Z,975.15
2022-09-23T04:38:40.390Z,975.10
2022-09-23T04:39:41.487Z,975.09
2022-09-23T04:40:41.571Z,975.05
2022-09-23T04:41:41.467Z,975.08
2022-09-23T04:42:41.459Z,975.06
2022-09-23T04:43:41.452Z,975.02
2022-09-23T04:44:41.859Z,975.09
2022-09-23T04:45:41.416Z,975.10
2022-09-23T04:46:41.523Z,975.00
2022-09-23T04:47:41.384Z,975.08
2022-09-23T04:48:41.420Z,975.04
2022-09-23T04:49:41.371Z,975.00
2022-09-23T04:50:41.357Z,975.00
2022-09-23T04:51:41.352Z,975.02
2022-09-23T04:52:41.329Z,975.02
2022-09-23T04:53:41.722Z,974.99
2022-09-23T04:54:41.325Z,975.01
2022-09-23T04:55:41.301Z,974.98
2022-09-23T04:56:41.297Z,974.96
2022-09-23T04:57:41.259Z,974.92
2022-09-23T04:58:41.274Z,974.95
2022-09-23T04:59:41.264Z,974.99
2022-09-23T05:00:41.258Z,974.98
2022-09-23T05:01:41.279Z,975.00
2022-09-23T05:02:41.202Z,975.05
2022-09-23T05:03:41.204Z,974.99
2022-09-23T05:04:41.195Z,975.04
2022-09-23T05:05:41.176Z,975.01
2022-09-23T05:06:41.147Z,974.98
2022-09-23T05:07:41.147Z,975.02
2022-09-23T05:08:41.138Z,975.01
2022-09-23T05:09:41.153Z,974.99
2022-09-23T05:10:41.121Z,975.02
2022-09-23T05:11:41.117Z,974.98
2022-09-23T05:12:41.086Z,975.01
2022-09-23T05:13:41.097Z,974.99
2022-09-23T05:14:41.103Z,974.95
2022-09-23T05:15:41.062Z,974.99
2022-09-23T05:16:41.123Z,974.99
2022-09-23T05:17:41.033Z,974.98
2022-09-23T05:18:41.012Z,975.00
2022-09-23T05:19:41.052Z,974.96
2022-09-23T05:20:40.997Z,974.96
2022-09-23T05:21:40.996Z,974.99
2022-09-23T05:22:40.963Z,974.97
2022-09-23T05:23:40.966Z,974.99
2022-09-23T05:24:40.949Z,974.98
2022-09-23T05:25:40.991Z,975.01
2022-09-23T05:26:40.927Z,974.99
2022-09-23T05:27:40.925Z,974.99
2022-09-23T05:28:40.903Z,975.06
2022-09-23T05:29:40.880Z,974.98
2022-09-23T05:30:40.943Z,974.98
2022-09-23T05:31:41.160Z,975.04
2022-09-23T05:32:40.862Z,974.98
2022-09-23T05:33:40.852Z,975.06
2022-09-23T05:34:40.839Z,974.98
2022-09-23T05:35:40.827Z,975.00
2022-09-23T05:36:40.841Z,974.98
2022-09-23T05:37:40.794Z,975.01
2022-09-23T05:38:40.784Z,974.98
2022-09-23T05:39:41.530Z,974.99
2022-09-23T05:40:40.873Z,974.97
2022-09-23T05:41:40.808Z,975.01
2022-09-23T05:42:40.756Z,975.03
2022-09-23T05:43:40.739Z,975.04
2022-09-23T05:44:40.732Z,975.06
2022-09-23T05:45:40.716Z,975.01
2022-09-23T05:46:40.749Z,975.10
2022-09-23T05:47:40.696Z,975.00
2022-09-23T05:48:41.371Z,975.08
2022-09-23T05:49:58.639Z,975.08
2022-09-23T05:50:40.666Z,975.02
2022-09-23T05:51:40.660Z,975.09
2022-09-23T05:52:40.658Z,975.06
2022-09-23T05:53:40.638Z,975.02
2022-09-23T05:54:40.626Z,975.09
2022-09-23T05:55:40.607Z,975.10
2022-09-23T05:56:40.596Z,975.16
2022-09-23T05:57:40.620Z,975.12
2022-09-23T05:58:40.573Z,975.11
2022-09-23T05:59:40.580Z,975.12
2022-09-23T06:00:40.548Z,975.12
2022-09-23T06:01:40.579Z,975.13
2022-09-23T06:02:40.642Z,975.12
2022-09-23T06:03:40.534Z,975.16
2022-09-23T06:04:40.504Z,975.15
2022-09-23T06:05:40.509Z,975.22
2022-09-23T06:06:40.483Z,975.19
2022-09-23T06:07:40.482Z,975.13
2022-09-23T06:08:40.488Z,975.16
2022-09-23T06:09:41.451Z,975.17
2022-09-23T06:10:40.447Z,975.17
2022-09-23T06:11:40.428Z,975.19
2022-09-23T06:12:40.441Z,975.16
2022-09-23T06:13:40.425Z,975.20
2022-09-23T06:14:40.396Z,975.22
2022-09-23T06:15:40.431Z,975.15
2022-09-23T06:16:40.363Z,975.21
2022-09-23T06:17:40.360Z,975.19
2022-09-23T06:18:40.400Z,975.21
2022-09-23T06:19:40.334Z,975.25
2022-09-23T06:20:40.321Z,975.12
2022-09-23T06:21:40.321Z,975.16
2022-09-23T06:22:40.339Z,975.22
2022-09-23T06:23:41.768Z,975.21
2022-09-23T06:24:40.288Z,975.15
2022-09-23T06:25:40.276Z,975.16
2022-09-23T06:26:40.254Z,975.12
2022-09-23T06:27:40.264Z,975.23
2022-09-23T06:28:40.237Z,975.16
2022-09-23T06:29:40.262Z,975.13
2022-09-23T06:30:40.207Z,975.14
2022-09-23T06:31:40.254Z,975.14
2022-09-23T06:32:40.195Z,975.12
2022-09-23T06:33:40.187Z,975.08
2022-09-23T06:34:50.366Z,975.13
2022-09-23T06:35:40.791Z,975.07
2022-09-23T06:36:44.570Z,975.09
2022-09-23T06:37:40.137Z,975.08
2022-09-23T06:38:40.127Z,975.03
2022-09-23T06:39:40.115Z,975.01
2022-09-23T06:40:40.208Z,975.01
2022-09-23T06:41:40.077Z,975.05
2022-09-23T06:42:40.086Z,975.05
2022-09-23T06:43:40.064Z,975.07
2022-09-23T06:44:40.050Z,974.99
2022-09-23T06:45:40.070Z,975.08
2022-09-23T06:46:40.097Z,975.03
2022-09-23T06:47:40.030Z,975.05
2022-09-23T06:48:42.852Z,975.05
2022-09-23T06:49:40.006Z,975.01
2022-09-23T06:50:39.997Z,975.05
2022-09-23T06:51:39.989Z,975.02
2022-09-23T06:52:39.969Z,975.02
2022-09-23T06:53:39.964Z,975.02
2022-09-23T06:54:39.948Z,975.03
2022-09-23T06:55:39.936Z,975.00
2022-09-23T06:56:40.230Z,975.02
2022-09-23T06:57:39.912Z,975.05
2022-09-23T06:58:39.890Z,975.01
2022-09-23T06:59:40.895Z,974.98
2022-09-23T07:00:39.876Z,974.96
2022-09-23T07:01:40.004Z,974.96
2022-09-23T07:02:39.947Z,974.99
2022-09-23T07:03:39.849Z,974.93
2022-09-23T07:04:39.852Z,974.92
2022-09-23T07:05:39.814Z,974.91
2022-09-23T07:06:39.811Z,974.91
2022-09-23T07:07:39.814Z,974.86
2022-09-23T07:08:39.786Z,974.94
2022-09-23T07:09:39.762Z,974.89
2022-09-23T07:10:39.776Z,974.90
2022-09-23T07:11:39.773Z,974.93
2022-09-23T07:12:39.773Z,974.95
2022-09-23T07:13:39.726Z,974.97
2022-09-23T07:14:39.717Z,974.93
2022-09-23T07:15:39.764Z,975.00
2022-09-23T07:16:39.685Z,974.93
2022-09-23T07:17:39.726Z,974.94
2022-09-23T07:18:39.678Z,974.90
2022-09-23T07:19:39.676Z,974.86
2022-09-23T07:20:39.659Z,974.89
2022-09-23T07:21:39.636Z,974.87
2022-09-23T07:22:39.626Z,974.88
2022-09-23T07:23:39.642Z,974.86
2022-09-23T07:24:39.614Z,974.83
2022-09-23T07:25:39.598Z,974.87
2022-09-23T07:26:44.868Z,974.91
2022-09-23T07:27:39.578Z,974.88
2022-09-23T07:28:39.588Z,974.91
2022-09-23T07:29:48.169Z,974.90
2022-09-23T07:30:44.250Z,974.85
2022-09-23T07:31:40.196Z,974.88
2022-09-23T07:32:48.273Z,974.92
2022-09-23T07:33:39.557Z,974.94
2022-09-23T07:34:39.505Z,974.89
2022-09-23T07:35:39.493Z,974.89
2022-09-23T07:36:39.476Z,974.92
2022-09-23T07:37:39.472Z,974.95
2022-09-23T07:38:44.982Z,974.92
2022-09-23T07:39:39.471Z,974.85
2022-09-23T07:40:39.469Z,974.86
2022-09-23T07:41:39.416Z,974.90
2022-09-23T07:42:39.418Z,974.92
2022-09-23T07:43:39.406Z,974.85
2022-09-23T07:44:39.423Z,974.85
2022-09-23T07:45:39.542Z,974.89
2022-09-23T07:46:39.443Z,974.83
2022-09-23T07:47:39.462Z,974.81
2022-09-23T07:48:39.345Z,974.83
2022-09-23T07:49:39.372Z,974.86
2022-09-23T07:50:39.331Z,974.81
2022-09-23T07:51:39.309Z,974.80
2022-09-23T07:52:39.293Z,974.79
2022-09-23T07:53:39.287Z,974.79
2022-09-23T07:54:39.276Z,974.77
2022-09-23T07:55:39.311Z,974.81
2022-09-23T07:56:39.238Z,974.80
2022-09-23T07:57:39.241Z,974.80
2022-09-23T07:58:39.221Z,974.77
2022-09-23T07:59:39.205Z,974.68
2022-09-23T08:00:39.232Z,974.74
2022-09-23T08:01:39.264Z,974.71
2022-09-23T08:02:39.231Z,974.77
2022-09-23T08:03:39.155Z,974.70
2022-09-23T08:04:39.156Z,974.72
2022-09-23T08:05:39.155Z,974.79
2022-09-23T08:06:39.178Z,974.80
2022-09-23T08:07:39.109Z,974.81
2022-09-23T08:08:39.081Z,974.83
2022-09-23T08:09:39.096Z,974.73
2022-09-23T08:10:39.118Z,974.72
2022-09-23T08:11:39.093Z,974.77
2022-09-23T08:12:39.048Z,974.77
2022-09-23T08:13:39.032Z,974.76
2022-09-23T08:14:39.013Z,974.77
2022-09-23T08:15:39.059Z,974.74
2022-09-23T08:16:39.002Z,974.79
2022-09-23T08:17:39.010Z,974.78
2022-09-23T08:18:38.978Z,974.82
2022-09-23T08:19:38.944Z,974.80
2022-09-23T08:20:42.514Z,974.80
2022-09-23T08:21:38.958Z,974.72
2022-09-23T08:22:38.956Z,974.76
2022-09-23T08:23:38.906Z,974.74
2022-09-23T08:24:38.890Z,974.76
2022-09-23T08:25:38.905Z,974.78
2022-09-23T08:26:38.875Z,974.78
2022-09-23T08:27:38.897Z,974.82
2022-09-23T08:28:38.861Z,974.74
2022-09-23T08:29:38.834Z,974.76
2022-09-23T08:30:38.850Z,974.71
2022-09-23T08:31:38.815Z,974.78
2022-09-23T08:32:38.838Z,974.84
2022-09-23T08:33:39.317Z,974.76
2022-09-23T08:34:38.791Z,974.74
2022-09-23T08:35:38.764Z,974.79
2022-09-23T08:36:38.886Z,974.79
2022-09-23T08:39:30.038Z,974.71
2022-09-23T08:40:29.186Z,974.64
2022-09-23T08:41:29.087Z,974.70
2022-09-23T08:42:29.038Z,974.70
2022-09-23T08:43:28.939Z,974.72
2022-09-23T08:44:28.995Z,974.69
2022-09-23T08:45:28.916Z,974.70
2022-09-23T08:46:28.961Z,974.64
2022-09-23T08:47:28.905Z,974.69
2022-09-23T08:48:28.872Z,974.65
2022-09-23T08:49:28.918Z,974.71
2022-09-23T08:50:28.850Z,974.70
2022-09-23T08:51:29.090Z,974.69
2022-09-23T08:53:38.420Z,974.65
2022-09-23T08:54:38.407Z,974.66
2022-09-23T08:55:38.357Z,974.64
2022-09-23T08:56:38.421Z,974.63
2022-09-23T08:59:03.208Z,974.66
2022-09-23T09:00:03.099Z,974.59
2022-09-23T09:01:01.350Z,974.62
2022-09-23T09:02:01.282Z,974.55
2022-09-23T09:03:01.264Z,974.57
2022-09-23T09:04:01.267Z,974.62
2022-09-23T09:05:01.240Z,974.60
2022-09-23T09:06:01.278Z,974.60
2022-09-23T09:07:24.500Z,974.55
2022-09-23T09:08:01.216Z,974.58
2022-09-23T09:09:01.209Z,974.62
2022-09-23T09:10:01.196Z,974.67
2022-09-23T09:11:01.172Z,974.61
2022-09-23T09:12:01.190Z,974.63
2022-09-23T09:13:01.153Z,974.71
2022-09-23T09:14:11.419Z,974.66
2022-09-23T09:15:01.311Z,974.67
2022-09-23T09:16:02.573Z,974.68
2022-09-23T09:17:02.540Z,974.63
2022-09-23T09:18:02.263Z,974.66
2022-09-23T09:19:02.291Z,974.62
2022-09-23T09:20:02.220Z,974.65
2022-09-23T09:21:02.226Z,974.70
2022-09-23T09:22:02.227Z,974.64
2022-09-23T09:23:02.185Z,974.62
2022-09-23T09:24:02.225Z,974.60
2022-09-23T09:25:02.196Z,974.67
2022-09-23T09:26:02.162Z,974.62
2022-09-23T09:27:02.153Z,974.60
2022-09-23T09:28:02.144Z,974.66
2022-09-23T09:30:49.677Z,974.64
2022-09-23T09:31:49.668Z,974.68
2022-09-23T09:32:49.529Z,974.64
2022-09-23T09:33:49.468Z,974.60
2022-09-23T09:34:49.495Z,974.63
2022-09-23T09:35:49.433Z,974.63
2022-09-23T09:36:49.470Z,974.63
2022-09-23T09:37:49.470Z,974.60
2022-09-23T09:38:49.435Z,974.62
2022-09-23T09:39:49.394Z,974.61
2022-09-23T09:40:49.411Z,974.60
2022-09-23T09:41:49.363Z,974.62
2022-09-23T09:42:49.389Z,974.58
2022-09-23T09:43:49.360Z,974.64
2022-09-23T09:44:49.338Z,974.50
2022-09-23T09:45:52.711Z,974.52
2022-09-23T09:46:49.380Z,974.51
2022-09-23T09:47:50.511Z,974.46
2022-09-23T09:48:50.492Z,974.44
2022-09-23T09:49:50.473Z,974.40
2022-09-23T09:50:50.421Z,974.40
2022-09-23T09:51:50.408Z,974.48
2022-09-23T09:52:50.385Z,974.39
2022-09-23T09:53:50.336Z,974.32
2022-09-23T09:54:50.367Z,974.43
2022-09-23T09:55:50.311Z,974.33
2022-09-23T09:56:50.331Z,974.36
2022-09-23T09:57:50.380Z,974.32
2022-09-23T09:58:50.284Z,974.37
2022-09-23T09:59:50.277Z,974.37
2022-09-23T10:00:50.259Z,974.34
2022-09-23T10:01:50.216Z,974.28
2022-09-23T10:02:50.282Z,974.31
2022-09-23T10:03:51.392Z,974.29
2022-09-23T10:04:50.301Z,974.24
2022-09-23T10:05:50.191Z,974.28
2022-09-23T10:06:50.132Z,974.27
2022-09-23T10:07:50.157Z,974.23
2022-09-23T10:08:50.125Z,974.22
2022-09-23T10:09:50.204Z,974.20
2022-09-23T10:10:50.134Z,974.22
2022-09-23T10:11:50.155Z,974.21
2022-09-23T10:12:50.383Z,974.24
2022-09-23T10:13:50.433Z,974.19
2022-09-23T10:14:50.057Z,974.17
2022-09-23T10:15:50.001Z,974.19
2022-09-23T10:16:50.052Z,974.24
2022-09-23T10:17:50.006Z,974.16
2022-09-23T10:18:50.107Z,974.21
2022-09-23T10:19:49.959Z,974.19
2022-09-23T10:20:49.935Z,974.14
2022-09-23T10:24:14.783Z,974.05
2022-09-23T10:25:14.782Z,974.05
2022-09-23T10:26:14.715Z,973.99
2022-09-23T10:27:14.741Z,974.00
2022-09-23T10:28:14.686Z,974.08
2022-09-23T10:29:14.707Z,974.04
2022-09-23T10:30:14.657Z,974.04
2022-09-23T10:31:14.698Z,974.06
2022-09-23T10:32:14.658Z,973.99
2022-09-23T10:33:14.658Z,973.97
2022-09-23T10:34:14.604Z,974.01
2022-09-23T10:35:14.634Z,974.00
2022-09-23T10:36:14.568Z,974.00
2022-09-23T10:37:14.584Z,974.03
2022-09-23T10:38:14.547Z,973.98
2022-09-23T10:39:14.582Z,974.01
2022-09-23T10:40:14.602Z,973.97
2022-09-23T10:41:14.538Z,973.99
2022-09-23T10:42:14.562Z,974.00
2022-09-23T10:43:14.503Z,973.97
2022-09-23T10:44:14.470Z,973.99
2022-09-23T10:45:14.508Z,973.98
2022-09-23T10:46:14.467Z,973.94
2022-09-23T10:47:14.438Z,973.97
2022-09-23T10:48:14.457Z,973.95
2022-09-23T10:49:14.413Z,973.94
2022-09-23T10:50:14.395Z,973.95
2022-09-23T10:51:14.426Z,973.96
2022-09-23T10:52:14.393Z,973.98
2022-09-23T10:53:14.394Z,973.91
2022-09-23T10:54:14.338Z,973.92
2022-09-23T10:55:14.336Z,973.90
2022-09-23T10:56:14.336Z,973.98
2022-09-23T10:57:14.339Z,973.92
2022-09-23T10:58:14.337Z,973.92
2022-09-23T10:59:14.311Z,973.97
2022-09-23T11:00:14.264Z,973.93
2022-09-23T11:01:14.316Z,973.91
2022-09-23T11:02:14.239Z,973.89
2022-09-23T11:03:14.274Z,973.81
2022-09-23T11:04:14.458Z,973.84
2022-09-23T11:05:14.220Z,973.83
2022-09-23T11:06:14.189Z,973.85
2022-09-23T11:07:14.189Z,973.80
2022-09-23T11:08:14.211Z,973.80
2022-09-23T11:09:14.239Z,973.74
2022-09-23T11:10:29.001Z,973.79
2022-09-23T11:11:15.158Z,973.77
2022-09-23T11:12:14.127Z,973.69
2022-09-23T11:13:14.120Z,973.76
2022-09-23T11:14:14.202Z,973.78
2022-09-23T11:15:14.131Z,973.71
2022-09-23T11:16:14.130Z,973.71
2022-09-23T11:17:14.067Z,973.72
2022-09-23T11:18:14.052Z,973.66
2022-09-23T11:19:14.067Z,973.62
2022-09-23T11:20:14.042Z,973.64
2022-09-23T11:21:14.108Z,973.64
2022-09-23T11:22:14.001Z,973.67
2022-09-23T11:23:14.004Z,973.65
2022-09-23T11:24:13.975Z,973.67
2022-09-23T11:25:14.005Z,973.65
2022-09-23T11:26:13.948Z,973.63
2022-09-23T11:27:13.985Z,973.58
2022-09-23T11:28:13.927Z,973.59
2022-09-23T11:29:13.936Z,973.59
2022-09-23T11:30:13.918Z,973.57
2022-09-23T11:31:13.963Z,973.55
2022-09-23T11:32:13.887Z,973.50
2022-09-23T11:33:14.034Z,973.45
2022-09-23T11:34:13.880Z,973.48
2022-09-23T11:35:13.891Z,973.51
2022-09-23T11:36:13.864Z,973.41
2022-09-23T11:37:13.848Z,973.49
2022-09-23T11:38:13.814Z,973.38
2022-09-23T11:39:13.810Z,973.44
2022-09-23T11:40:15.171Z,973.43
2022-09-23T11:41:14.917Z,973.39
2022-09-23T11:42:14.927Z,973.40
2022-09-23T11:43:14.876Z,973.41
2022-09-23T11:44:14.905Z,973.38
2022-09-23T11:45:14.854Z,973.34
2022-09-23T11:46:14.934Z,973.40
2022-09-23T11:47:50.048Z,973.37
2022-09-23T11:48:14.939Z,973.39
2022-09-23T11:49:15.006Z,973.36
2022-09-23T11:50:14.852Z,973.28
2022-09-23T11:51:14.906Z,973.31
2022-09-23T11:52:14.856Z,973.36
2022-09-23T11:53:14.936Z,973.38
2022-09-23T11:54:19.742Z,973.33
2022-09-23T11:55:21.283Z,973.24
2022-09-23T11:56:17.600Z,973.22
2022-09-23T11:57:14.766Z,973.19
2022-09-23T11:58:26.223Z,973.15
2022-09-23T11:59:15.230Z,973.27
2022-09-23T12:00:14.988Z,973.23
2022-09-23T12:01:14.882Z,973.18
2022-09-23T12:02:20.306Z,973.18
2022-09-23T12:03:14.734Z,973.20
2022-09-23T12:04:20.530Z,973.20
2022-09-23T12:05:14.750Z,973.16
2022-09-23T12:06:15.045Z,973.24
2022-09-23T12:07:14.630Z,973.24
2022-09-23T12:08:14.650Z,973.16
2022-09-23T12:09:14.596Z,973.14
2022-09-23T12:10:14.599Z,973.18
2022-09-23T12:11:14.590Z,973.11
2022-09-23T12:12:14.572Z,973.13
2022-09-23T12:13:14.578Z,973.05
2022-09-23T12:14:14.813Z,973.11
2022-09-23T12:15:14.884Z,973.10
2022-09-23T12:16:14.637Z,973.10
2022-09-23T12:17:14.495Z,973.06
2022-09-23T12:18:14.506Z,973.17
2022-09-23T12:19:14.553Z,973.06
2022-09-23T12:20:14.502Z,973.09
2022-09-23T12:21:32.756Z,973.02
2022-09-23T12:22:15.487Z,973.09
2022-09-23T12:23:14.459Z,973.04
2022-09-23T12:24:18.442Z,973.05
2022-09-23T12:25:14.450Z,972.99
2022-09-23T12:26:14.405Z,972.98
2022-09-23T12:27:14.405Z,973.05
2022-09-23T12:28:14.412Z,973.00
2022-09-23T12:29:14.390Z,973.02
2022-09-23T12:30:14.396Z,972.94
2022-09-23T12:31:14.431Z,972.97
2022-09-23T12:32:14.316Z,973.02
2022-09-23T12:33:14.320Z,972.95
2022-09-23T12:34:14.312Z,972.99
2022-09-23T12:35:14.319Z,972.97
2022-09-23T12:36:14.300Z,972.95
2022-09-23T12:37:14.266Z,972.98
2022-09-23T12:38:14.266Z,973.01
2022-09-23T12:39:14.273Z,972.95